ENMS  Mosjøen Airport, Kjærstad Airport

Add Bookmark

Norway

Status IATA
Operational MJF
Latitude Longitude
65° 47' 2" N 13° 12' 53" E
65.783997 13.214900
Local (DST + 2) UTC (GMT + 1)
Sep 16, 2014 03:24 Sep 16, 2014 13:24
Sunrise-Sunset Local UTC
Begin Civil Twilight 05:37 03:37
Sunrise 06:29 04:29
Sunset 07:34 17:34
End Civil Twilight 08:26 18:26

Current Weather

METAR Observed VFR
ENMS 161250Z VRB02KT CAVOK 17/09 Q1026 Tue, Sep 16, 2014 @ 12:50 UTC
(34 Minutes ago)
Visual Flight Rules
Wind Visibility Clouds Conditions
Varies at 2 knots (4 kph) 10 km or more
  • Clear skies
  • No significant weather
Temperatures Readings Precipitation
Current Temp 17°C (63°F)
Dewpoint 9°C (48°F)
Humidity 59%
Altimeter 30.3"Hg
Sea Level Pressure 1026mb
Field Elevation 229.66'
None Recorded

Additional weather within a 92.6km radius of ENMS

Map ICAO Location
ENST 38.9km W (300°)
ENBN 58.2km S (232°)
ENRA 80.9km N (037°)
ESUT 85.2km E (087°)

24 Hour Weather History

Loading
-

24 Hour Weather Graphs

Loading
-

CheckWX.com is intended as a tool to help pilots better visualize weather data. It is not intended as a substitute for an official weather briefing obtained from a Flight Service Station. CheckWX.com does not meet the FAA requirements for an official pre-flight weather briefing. Therefore, it's important that pilots still call and obtain an official FSS pre-flight weather briefing.